Time;durP1;ratioP1;P1;durP2;ratioP2;P2;SDS_P1;SDS_P2;PMS_P1;PMS_P2;Temp;Humidity;BMP_temperature;BMP_pressure;BME280_temperature;BME280_humidity;BME280_pressure;Samples;Min_cycle;Max_cycle;Signal;HPM_P1;HPM_P2
2023/06/16 00:00:45;;;;;;;2.20;2.10;;;22.10;99.90;;;22.63;63.03;101791.88;4938200;29;20079;-64
2023/06/16 00:03:15;;;;;;;1.90;1.80;;;22.10;99.90;;;22.64;62.69;101785.56;4937915;29;20139;-64
2023/06/16 00:05:45;;;;;;;2.20;2.10;;;22.10;99.90;;;22.59;62.73;101790.25;4938153;29;20287;-64
2023/06/16 00:08:16;;;;;;;2.22;2.13;;;22.10;99.90;;;22.24;63.35;101794.25;4934662;29;20043;-63
2023/06/16 00:10:45;;;;;;;2.10;2.00;;;21.70;99.90;;;22.10;64.50;101804.72;4937753;29;20056;-64
2023/06/16 00:13:13;;;;;;;1.80;1.80;;;21.50;99.90;;;21.87;65.74;101790.31;4937790;29;20047;-64
2023/06/16 00:15:41;;;;;;;2.25;2.15;;;21.30;99.90;;;21.56;64.93;101763.56;4937654;29;20071;-64
2023/06/16 00:18:10;;;;;;;2.28;2.17;;;21.10;99.90;;;21.46;66.03;101780.97;4937623;29;20578;-64
2023/06/16 00:20:38;;;;;;;2.28;2.17;;;20.90;99.90;;;21.40;66.12;101778.47;4937797;29;20055;-64
2023/06/16 00:23:09;;;;;;;2.22;2.13;;;20.80;99.90;;;21.28;67.16;101771.72;4937519;29;20051;-64
2023/06/16 00:25:39;;;;;;;2.30;2.20;;;20.70;99.90;;;21.17;68.70;101775.69;4937604;29;20052;-64
2023/06/16 00:28:07;;;;;;;2.00;1.90;;;20.60;99.90;;;20.86;70.20;101766.84;4934276;29;20520;-64
2023/06/16 00:30:36;;;;;;;1.98;1.88;;;20.30;99.90;;;20.94;70.78;101778.22;4936177;29;20051;-65
2023/06/16 00:33:05;;;;;;;2.40;2.30;;;20.30;99.90;;;20.93;70.77;101761.19;4944605;29;20080;-63
2023/06/16 00:35:34;;;;;;;2.40;2.30;;;20.40;99.90;;;20.28;70.67;101689.84;4937631;29;20044;-64
2023/06/16 00:38:03;;;;;;;2.30;2.20;;;20.20;99.90;;;20.69;71.73;101768.25;4928584;29;20075;-64
2023/06/16 00:40:31;;;;;;;2.13;2.03;;;20.10;99.90;;;20.64;71.70;101761.25;4937587;29;20521;-64
2023/06/16 00:43:02;;;;;;;2.60;2.50;;;20.00;99.90;;;20.66;72.48;101762.09;4937467;29;20051;-63
2023/06/16 00:45:30;;;;;;;;;;;20.10;99.90;;;20.66;70.82;101762.97;4937636;29;20078;-64
2023/06/16 00:48:00;;;;;;;2.20;2.10;;;20.10;99.90;;;20.54;70.98;101766.03;4937399;29;19977;-64
2023/06/16 00:50:29;;;;;;;2.22;2.13;;;20.00;99.90;;;20.46;70.26;101773.47;4933993;29;20087;-64
2023/06/16 00:52:57;;;;;;;2.55;2.45;;;19.90;99.90;;;20.37;70.00;101765.69;4936038;29;20159;-63
2023/06/16 00:55:26;;;;;;;2.53;2.42;;;19.80;99.90;;;20.22;70.86;101766.16;4937321;29;20513;-63
2023/06/16 00:57:55;;;;;;;2.20;2.10;;;19.70;99.90;;;20.27;72.77;101755.25;4934946;29;20107;-63
2023/06/16 01:00:27;;;;;;;2.28;2.17;;;19.60;99.90;;;20.29;73.22;101758.78;4936023;29;20047;-63
2023/06/16 01:02:56;;;;;;;2.20;2.10;;;19.70;99.90;;;20.38;72.09;101762.06;4937315;29;20075;-63
2023/06/16 01:05:27;;;;;;;2.47;2.38;;;19.70;99.90;;;20.33;70.89;101758.63;4924963;29;20086;-63
2023/06/16 01:08:11;;;;;;;2.20;2.10;;;19.80;99.90;;;20.33;70.98;101763.13;4933485;29;20407;-64
2023/06/16 01:10:52;;;;;;;2.33;2.22;;;19.80;99.90;;;20.34;71.70;101759.53;4935829;29;20056;-64
2023/06/16 01:13:27;;;;;;;2.10;2.00;;;19.80;99.90;;;20.30;72.56;101761.44;4933778;29;20051;-64
2023/06/16 01:16:00;;;;;;;2.10;2.00;;;19.80;99.90;;;20.15;71.94;101761.84;4937090;29;20456;-65
2023/06/16 01:18:30;;;;;;;2.30;2.20;;;19.60;99.90;;;20.08;72.83;101746.84;4944158;29;20077;-64
2023/06/16 01:21:11;;;;;;;2.10;2.00;;;19.60;99.90;;;19.99;74.54;101747.09;4935731;29;20066;-64
2023/06/16 01:24:02;;;;;;;2.65;2.55;;;19.50;99.90;;;19.93;75.65;101749.09;4934562;29;20486;-65
2023/06/16 01:26:32;;;;;;;2.28;2.17;;;19.40;99.90;;;19.88;75.77;101754.56;4934415;29;20070;-66
2023/06/16 01:29:05;;;;;;;2.67;2.58;;;19.30;99.90;;;19.93;75.33;101755.34;4935852;29;20055;-66
2023/06/16 01:31:36;;;;;;;2.28;2.17;;;19.30;99.90;;;20.01;75.11;101758.69;4936935;29;20059;-64
2023/06/16 01:34:08;;;;;;;2.72;2.63;;;19.40;99.90;;;20.07;74.88;101755.84;4932392;29;20410;-64
2023/06/16 01:36:40;;;;;;;2.75;2.65;;;19.50;99.90;;;20.06;74.47;101758.53;4933352;29;20055;-65
2023/06/16 01:39:12;;;;;;;2.30;2.20;;;19.50;99.90;;;19.94;74.07;101754.41;4936698;29;20058;-65
2023/06/16 01:41:40;;;;;;;2.50;2.40;;;19.40;99.90;;;19.84;74.93;101752.91;4936545;29;20079;-64
2023/06/16 01:44:10;;;;;;;2.42;2.33;;;19.30;99.90;;;19.80;75.71;101729.75;4936264;29;20086;-64
2023/06/16 01:46:39;;;;;;;2.38;2.28;;;19.30;99.90;;;19.91;75.59;101738.38;4936280;29;20576;-65
2023/06/16 01:49:08;;;;;;;2.30;2.20;;;19.30;99.90;;;19.82;75.54;101738.66;4931771;29;20524;-64
2023/06/16 01:51:37;;;;;;;2.15;2.05;;;19.30;99.90;;;19.82;74.53;101733.28;4936298;29;20082;-64
2023/06/16 01:54:07;;;;;;;;;;;19.40;99.90;;;19.68;73.75;101724.75;4932856;29;20494;-65
2023/06/16 01:56:37;;;;;;;2.38;2.28;;;19.30;99.90;;;19.72;73.71;101731.78;4936204;29;19935;-65
2023/06/16 01:59:05;;;;;;;2.63;2.53;;;19.20;99.90;;;19.62;73.19;101727.59;4936113;29;20051;-65
2023/06/16 02:01:40;;;;;;;2.50;2.40;;;19.10;99.90;;;19.61;73.17;101733.88;4936115;29;20370;-65
2023/06/16 02:04:12;;;;;;;2.40;2.30;;;19.10;99.90;;;19.26;73.79;101672.22;4935877;29;20506;-65
2023/06/16 02:06:45;;;;;;;2.30;2.20;;;19.00;99.90;;;19.54;74.57;101716.19;4932363;29;20059;-68
2023/06/16 02:09:16;;;;;;;2.40;2.30;;;19.00;99.90;;;19.44;75.26;101674.41;4934472;29;20107;-65
2023/06/16 02:11:49;;;;;;;2.35;2.25;;;19.10;99.90;;;19.85;74.94;101737.66;4935815;29;20059;-65
2023/06/16 02:14:18;;;;;;;2.30;2.20;;;19.20;99.90;;;19.75;74.65;101737.94;4935820;29;20063;-66
2023/06/16 02:16:49;;;;;;;2.53;2.42;;;19.20;99.90;;;19.93;74.33;101741.03;4935832;29;20059;-66
2023/06/16 02:19:18;;;;;;;2.38;2.28;;;19.30;99.90;;;19.63;74.03;101742.75;4931370;29;20052;-65
2023/06/16 02:21:46;;;;;;;2.35;2.25;;;19.10;99.90;;;19.52;74.69;101735.03;4932035;29;20080;-65
2023/06/16 02:24:15;;;;;;;2.53;2.42;;;19.00;99.90;;;19.45;75.62;101741.44;4935597;29;20082;-65
2023/06/16 02:26:44;;;;;;;2.67;2.58;;;18.90;99.90;;;19.42;76.84;101744.22;4935599;29;20404;-65
2023/06/16 02:29:13;;;;;;;2.40;2.30;;;18.80;99.90;;;19.47;77.25;101741.44;4935312;29;20055;-65
2023/06/16 02:31:47;;;;;;;2.13;2.03;;;18.90;99.90;;;19.39;77.27;101736.28;4935364;29;20074;-66
2023/06/16 02:34:16;;;;;;;2.45;2.35;;;18.80;99.90;;;19.34;76.59;101738.19;4935530;29;20039;-65
2023/06/16 02:36:45;;;;;;;2.30;2.20;;;18.80;99.90;;;19.29;75.81;101739.19;4935178;29;20047;-65
2023/06/16 02:39:14;;;;;;;2.75;2.65;;;18.70;99.90;;;19.11;76.36;101718.22;4931443;29;20183;-66
2023/06/16 02:41:43;;;;;;;2.38;2.28;;;18.70;99.90;;;19.22;77.56;101741.16;4935323;29;20048;-65
2023/06/16 02:44:12;;;;;;;2.55;2.45;;;18.70;99.90;;;19.24;78.66;101739.31;4926368;29;20079;-65
2023/06/16 02:46:41;;;;;;;2.63;2.53;;;18.70;99.90;;;19.24;77.59;101731.25;4935341;29;20083;-65
2023/06/16 02:49:10;;;;;;;2.53;2.42;;;18.70;99.90;;;19.27;76.79;101741.94;4942257;29;20297;-64
2023/06/16 02:51:38;;;;;;;2.33;2.22;;;18.70;99.90;;;19.23;76.72;101731.31;4935274;29;20047;-65
2023/06/16 02:54:09;;;;;;;2.30;2.20;;;18.70;99.90;;;19.17;76.89;101737.72;4926294;29;20406;-65
2023/06/16 02:56:37;;;;;;;2.53;2.42;;;18.70;99.90;;;19.03;77.09;101712.19;4933709;29;20055;-65
2023/06/16 02:59:06;;;;;;;2.55;2.45;;;18.60;99.90;;;19.16;77.28;101738.66;4922599;29;20143;-66
2023/06/16 03:01:36;;;;;;;2.25;2.15;;;18.60;99.90;;;19.19;77.15;101737.66;4942925;29;20119;-65
2023/06/16 03:04:18;;;;;;;2.45;2.35;;;18.60;99.90;;;19.18;76.96;101739.47;4933803;29;20093;-64
2023/06/16 03:07:07;;;;;;;2.63;2.53;;;18.60;99.90;;;19.16;76.78;101737.75;4932974;29;20111;-65
2023/06/16 03:09:41;;;;;;;2.92;2.83;;;18.60;99.90;;;19.05;76.66;101713.03;4933718;29;20060;-65
2023/06/16 03:12:11;;;;;;;2.33;2.22;;;18.70;99.90;;;19.15;76.65;101744.03;4930429;29;20458;-65
2023/06/16 03:14:50;;;;;;;2.30;2.20;;;18.60;99.90;;;19.11;77.52;101742.34;4931375;29;20058;-65
2023/06/16 03:17:21;;;;;;;2.95;2.85;;;18.60;99.90;;;19.12;78.63;101744.13;4933641;29;20615;-66
2023/06/16 03:19:51;;;;;;;2.40;2.30;;;18.60;99.90;;;19.12;77.71;101752.16;4926987;29;20381;-66
2023/06/16 03:22:28;;;;;;;2.90;2.80;;;18.60;99.90;;;19.08;77.18;101750.47;4949458;28;20055;-67
2023/06/16 03:25:02;;;;;;;2.60;2.50;;;18.50;99.90;;;19.13;76.87;101749.44;4939671;29;20087;-66
2023/06/16 03:27:33;;;;;;;2.45;2.35;;;18.60;99.90;;;19.21;76.96;101754.59;4948267;28;20141;-67
2023/06/16 03:30:06;;;;;;;2.22;2.13;;;18.60;99.90;;;19.22;76.47;101759.06;4939965;29;20129;-66
2023/06/16 03:33:03;;;;;;;3.40;3.20;;;18.60;99.90;;;19.18;75.06;101757.38;4939151;29;20078;-65
2023/06/16 03:35:34;;;;;;;2.47;2.38;;;18.70;99.90;;;19.20;74.31;101760.91;4937571;29;20457;-66
2023/06/16 03:38:05;;;;;;;4.22;2.95;;;18.70;99.90;;;19.24;74.37;101762.59;4948106;29;20056;-65
2023/06/16 03:40:38;;;;;;;2.40;2.30;;;18.80;99.90;;;19.19;74.67;101760.03;4939819;29;20055;-65
2023/06/16 03:43:07;;;;;;;2.72;2.63;;;18.70;99.90;;;19.18;76.99;101760.91;4932037;29;20051;-65
2023/06/16 03:45:36;;;;;;;2.73;2.63;;;18.70;99.90;;;19.21;76.80;101770.72;4939463;29;20047;-65
2023/06/16 03:48:07;;;;;;;2.42;2.33;;;18.70;99.90;;;19.27;74.97;101770.56;4928896;29;20056;-65
2023/06/16 03:50:44;;;;;;;2.65;2.55;;;18.80;99.90;;;19.34;74.17;101765.03;4936840;29;20060;-65
2023/06/16 03:53:12;;;;;;;2.60;2.50;;;18.90;99.90;;;19.37;73.82;101775.69;4941015;29;20055;-65
2023/06/16 03:55:47;;;;;;;3.05;2.95;;;18.90;99.90;;;19.34;74.38;101773.06;4932426;29;20082;-65
2023/06/16 03:58:16;;;;;;;2.78;2.67;;;18.80;99.90;;;19.27;74.35;101765.19;4939842;29;20107;-65
2023/06/16 04:00:44;;;;;;;2.40;2.30;;;18.80;99.90;;;19.23;74.28;101776.91;4939694;29;20477;-65
2023/06/16 04:03:17;;;;;;;2.30;2.20;;;18.70;99.90;;;19.27;75.76;101773.22;4936245;29;20048;-65
2023/06/16 04:05:45;;;;;;;2.60;2.50;;;18.70;99.90;;;19.45;73.55;101772.81;4939759;29;20048;-65
2023/06/16 04:08:14;;;;;;;2.67;2.58;;;18.90;99.90;;;19.58;71.86;101766.19;4941001;29;20059;-65
2023/06/16 04:10:43;;;;;;;2.80;2.70;;;19.10;99.90;;;19.72;71.41;101764.84;4940928;29;20056;-65
2023/06/16 04:13:11;;;;;;;2.80;2.70;;;19.20;99.90;;;19.82;70.61;101767.31;4939637;29;20052;-65
2023/06/16 04:15:42;;;;;;;2.90;2.80;;;19.30;99.90;;;19.99;69.81;101773.97;4939795;29;20061;-65
2023/06/16 04:18:14;;;;;;;2.80;2.70;;;19.50;99.90;;;20.07;69.19;101782.69;4939779;29;20048;-65
2023/06/16 04:20:44;;;;;;;2.60;2.50;;;19.70;99.90;;;20.21;68.52;101777.81;4937275;29;20078;-65
2023/06/16 04:23:12;;;;;;;2.63;2.53;;;19.80;99.90;;;20.32;68.03;101777.50;4937006;29;20048;-65
2023/06/16 04:25:41;;;;;;;2.92;2.83;;;19.90;99.90;;;20.41;67.44;101780.78;4939968;29;20047;-65
2023/06/16 04:28:13;;;;;;;2.65;2.55;;;20.00;99.90;;;20.49;67.34;101780.56;4939664;29;20474;-65
2023/06/16 04:30:45;;;;;;;2.80;2.70;;;20.10;99.90;;;20.49;66.38;101784.13;4939600;29;20061;-65
2023/06/16 04:33:15;;;;;;;2.67;2.58;;;20.10;99.90;;;20.63;66.41;101779.19;4928784;29;20058;-66
2023/06/16 04:35:45;;;;;;;2.50;2.40;;;20.20;99.90;;;20.64;65.50;101783.66;4937728;29;20150;-65
2023/06/16 04:38:14;;;;;;;2.57;2.47;;;20.20;99.90;;;20.77;65.08;101786.81;4933001;29;20087;-65
2023/06/16 04:40:42;;;;;;;2.67;2.58;;;20.30;99.90;;;20.81;64.73;101790.31;4936040;29;20310;-65
2023/06/16 04:43:11;;;;;;;2.70;2.60;;;20.40;99.90;;;20.86;64.12;101791.03;4936112;29;20057;-65
2023/06/16 04:45:41;;;;;;;2.80;2.70;;;20.40;99.90;;;20.88;63.64;101784.69;4936266;29;20078;-65
2023/06/16 04:48:10;;;;;;;2.25;2.15;;;20.50;99.90;;;20.86;63.95;101785.66;4928594;29;20145;-65
2023/06/16 04:50:38;;;;;;;2.45;2.35;;;20.50;99.90;;;20.97;66.10;101786.19;4937464;29;20040;-65
2023/06/16 04:53:08;;;;;;;4.47;4.28;;;20.50;99.90;;;20.73;66.84;101787.84;4937341;29;20079;-66
2023/06/16 04:55:37;;;;;;;2.70;2.60;;;20.30;99.90;;;20.92;67.32;101791.75;4937385;29;20489;-66
2023/06/16 04:58:06;;;;;;;5.32;2.90;;;20.40;99.90;;;20.78;67.37;101780.53;4933467;29;20135;-65
2023/06/16 05:00:34;;;;;;;2.58;2.47;;;20.30;99.90;;;20.89;67.54;101786.44;4946026;29;20052;-65
2023/06/16 05:03:03;;;;;;;2.78;2.67;;;20.40;99.90;;;20.84;66.10;101788.41;4936180;29;20107;-63
2023/06/16 05:05:32;;;;;;;2.60;2.50;;;20.30;99.90;;;20.92;65.83;101796.22;4937432;29;20122;-63
2023/06/16 05:08:00;;;;;;;2.53;2.42;;;20.40;99.90;;;21.10;65.49;101801.91;4936027;29;20107;-62
2023/06/16 05:10:31;;;;;;;2.70;2.60;;;20.60;99.90;;;21.17;65.13;101792.72;4937245;29;20107;-63
2023/06/16 05:12:59;;;;;;;2.45;2.35;;;20.70;99.90;;;21.32;65.10;101796.69;4937027;29;20043;-63
2023/06/16 05:15:29;;;;;;;2.50;2.40;;;20.80;99.90;;;21.41;64.46;101793.69;4936646;29;20092;-64
2023/06/16 05:17:57;;;;;;;2.63;2.53;;;20.90;99.90;;;21.42;64.18;101782.00;4935178;29;20056;-63
2023/06/16 05:20:27;;;;;;;2.65;2.55;;;21.10;99.90;;;21.45;63.48;101793.53;4944405;29;20139;-65
2023/06/16 05:22:56;;;;;;;2.40;2.30;;;21.10;99.90;;;21.55;63.27;101805.75;4935445;29;20058;-63
2023/06/16 05:25:25;;;;;;;2.58;2.47;;;21.20;99.90;;;21.63;62.26;101800.09;4943178;29;20055;-64
2023/06/16 05:27:54;;;;;;;2.53;2.42;;;21.20;99.90;;;21.69;61.72;101790.91;4935391;29;20081;-63
2023/06/16 05:30:24;;;;;;;2.20;2.10;;;21.30;99.90;;;21.86;61.53;101799.31;4927743;29;20067;-63
2023/06/16 05:32:52;;;;;;;2.50;2.40;;;21.40;99.90;;;21.91;60.19;101792.81;4935180;29;20114;-65
2023/06/16 05:35:21;;;;;;;2.72;2.63;;;21.50;99.90;;;21.91;59.63;101800.91;4927333;29;20106;-65
2023/06/16 05:37:50;;;;;;;2.40;2.30;;;21.60;99.90;;;21.82;59.47;101801.25;4935150;29;20127;-67
2023/06/16 05:40:18;;;;;;;2.90;2.80;;;21.40;99.90;;;22.08;59.52;101800.31;4936394;29;20059;-66
2023/06/16 05:42:47;;;;;;;2.30;2.20;;;21.60;99.90;;;22.15;58.98;101797.31;4934588;29;20375;-66
2023/06/16 05:45:17;;;;;;;2.60;2.50;;;21.80;99.90;;;22.30;58.70;101806.63;4934986;29;20063;-66
2023/06/16 05:47:46;;;;;;;2.35;2.25;;;21.90;99.90;;;22.40;58.07;101805.34;4935029;29;20140;-66
2023/06/16 05:50:15;;;;;;;2.53;2.42;;;22.00;99.90;;;22.55;57.76;101801.19;4927370;29;20465;-65
2023/06/16 05:52:44;;;;;;;4.68;4.30;;;22.10;99.90;;;22.58;57.07;101804.69;4934727;29;20044;-66
2023/06/16 05:55:13;;;;;;;2.50;2.40;;;22.20;99.90;;;22.63;57.30;101804.53;4934775;29;20580;-66
2023/06/16 05:57:48;;;;;;;2.53;2.42;;;22.30;99.90;;;22.76;56.28;101800.38;4931302;29;20075;-66
2023/06/16 06:00:19;;;;;;;2.28;2.17;;;22.40;99.90;;;22.77;55.44;101803.00;4923210;29;20420;-67
2023/06/16 06:02:55;;;;;;;2.20;2.10;;;22.40;99.90;;;22.98;55.62;101806.66;4943001;29;20058;-65
2023/06/16 06:05:32;;;;;;;2.40;2.30;;;22.60;99.90;;;22.96;54.83;101814.81;4934687;29;20048;-65
2023/06/16 06:08:00;;;;;;;2.40;2.30;;;22.70;99.90;;;22.64;56.41;101819.75;4923414;29;20048;-65
2023/06/16 06:10:29;;;;;;;2.67;2.58;;;22.20;99.90;;;22.75;57.01;101814.81;4927800;29;20054;-66
2023/06/16 06:12:58;;;;;;;2.50;2.40;;;22.30;99.90;;;22.95;57.12;101828.41;4934252;29;20056;-66
2023/06/16 06:15:29;;;;;;;2.40;2.30;;;22.50;99.90;;;22.90;55.82;101798.88;4934359;29;20055;-66
2023/06/16 06:18:04;;;;;;;2.20;2.10;;;22.60;99.90;;;22.87;55.90;101800.81;4934459;29;20052;-64
2023/06/16 06:20:38;;;;;;;2.78;2.67;;;22.60;99.90;;;23.19;56.23;101840.88;4942459;29;20051;-64
2023/06/16 06:23:07;;;;;;;2.65;2.55;;;22.80;99.90;;;22.95;55.32;101831.09;4931065;29;20079;-64
2023/06/16 06:25:35;;;;;;;2.50;2.40;;;22.60;99.90;;;23.28;56.42;101827.03;4934269;29;20061;-71
2023/06/16 06:28:05;;;;;;;2.30;2.20;;;22.80;99.90;;;23.42;55.23;101824.66;4942212;29;20052;-75
2023/06/16 06:30:36;;;;;;;2.38;2.28;;;23.00;99.90;;;23.48;55.08;101826.22;4935529;29;20489;-75
2023/06/16 06:33:05;;;;;;;2.35;2.25;;;23.10;99.90;;;23.65;54.77;101837.19;4942311;29;20126;-71
2023/06/16 06:35:35;;;;;;;2.30;2.20;;;23.20;99.90;;;23.48;54.19;101828.91;4934244;29;20465;-75
2023/06/16 06:38:04;;;;;;;2.60;2.50;;;23.10;99.90;;;23.58;54.07;101831.16;4934187;29;20454;-75
2023/06/16 06:40:35;;;;;;;10.73;2.72;;;23.20;99.90;;;23.05;55.55;101836.03;4927012;29;20131;-74
2023/06/16 06:43:04;;;;;;;2.88;2.78;;;22.70;99.90;;;22.78;56.49;101834.47;4931107;29;20178;-75
2023/06/16 06:45:59;;;;;;;3.53;3.15;;;22.40;99.90;;;22.54;56.25;101832.69;4929026;29;20094;-76
2023/06/16 06:48:28;;;;;;;3.33;3.13;;;22.10;99.90;;;22.45;54.70;101844.69;4934353;29;20044;-74
2023/06/16 06:51:00;;;;;;;3.03;2.92;;;21.90;99.90;;;22.80;56.36;101834.41;4934419;29;20047;-73
2023/06/16 06:53:29;;;;;;;2.92;2.83;;;22.20;99.90;;;23.11;55.90;101843.03;4934042;29;20519;-74
2023/06/16 06:55:58;;;;;;;4.07;3.75;;;22.60;99.90;;;22.66;56.56;101836.75;4934487;29;20055;-75
2023/06/16 06:58:26;;;;;;;2.78;2.67;;;22.20;99.90;;;22.96;57.81;101840.94;4934807;29;20056;-74
2023/06/16 07:00:55;;;;;;;7.70;3.20;;;22.40;99.90;;;22.02;53.17;101715.16;4935383;29;20048;-75
2023/06/16 07:03:26;;;;;;;13.93;3.65;;;22.40;99.90;;;22.60;54.52;101845.09;4930235;29;20071;-74
2023/06/16 07:05:55;;;;;;;2.30;2.20;;;22.10;99.90;;;22.76;55.77;101840.84;4932064;29;20123;-74
2023/06/16 07:08:23;;;;;;;2.42;2.33;;;22.20;99.90;;;22.85;53.69;101848.59;4935098;29;20043;-66
2023/06/16 07:10:52;;;;;;;2.90;2.80;;;22.40;99.90;;;22.85;54.27;101841.38;4933826;29;20055;-66
2023/06/16 07:13:21;;;;;;;3.15;2.95;;;22.40;99.90;;;22.66;53.10;101842.16;4935344;29;20443;-70
2023/06/16 07:15:49;;;;;;;2.30;2.20;;;22.20;99.90;;;22.71;54.70;101834.75;4936070;29;20127;-68
2023/06/16 07:18:18;;;;;;;2.35;2.25;;;22.20;99.90;;;23.21;54.16;101845.28;4930323;29;20063;-71
2023/06/16 07:20:48;;;;;;;2.20;2.10;;;22.60;99.90;;;23.51;51.82;101836.88;4938434;29;20473;-69
2023/06/16 07:23:16;;;;;;;2.42;2.33;;;23.00;99.90;;;23.85;52.32;101845.28;4935728;29;20059;-69
2023/06/16 07:25:44;;;;;;;3.97;3.72;;;23.40;99.90;;;24.01;50.67;101844.56;4931492;29;20079;-70
2023/06/16 07:28:13;;;;;;;2.53;2.42;;;23.60;99.90;;;23.89;51.29;101853.19;4934923;29;20059;-68
2023/06/16 07:30:41;;;;;;;2.53;2.42;;;23.50;99.90;;;23.50;50.99;101838.69;4934840;29;20050;-70
2023/06/16 07:33:10;;;;;;;2.70;2.60;;;23.20;99.90;;;23.78;52.11;101847.41;4934794;29;20579;-70
2023/06/16 07:35:38;;;;;;;2.45;2.35;;;23.30;99.90;;;24.20;51.20;101851.91;4934937;29;20043;-70
2023/06/16 07:38:08;;;;;;;2.80;2.70;;;23.70;99.90;;;24.32;49.20;101851.31;4933650;29;20470;-69
2023/06/16 07:40:36;;;;;;;2.40;2.30;;;23.90;99.90;;;23.53;50.07;101757.53;4934619;29;20076;-68
2023/06/16 07:43:05;;;;;;;2.55;2.45;;;23.70;99.90;;;24.02;50.47;101857.16;4934616;29;20048;-69
2023/06/16 07:45:33;;;;;;;2.55;2.45;;;23.60;99.90;;;24.12;50.36;101850.41;4934549;29;20090;-70
2023/06/16 07:48:02;;;;;;;3.03;2.92;;;23.60;99.90;;;23.80;49.21;101858.13;4934699;29;20420;-69
2023/06/16 07:50:30;;;;;;;2.30;2.20;;;23.40;99.90;;;23.85;49.83;101853.41;4931341;29;20508;-70
2023/06/16 07:52:59;;;;;;;6.07;3.28;;;23.30;99.90;;;23.98;49.09;101852.78;4934473;29;20051;-71
2023/06/16 07:55:28;;;;;;;2.65;2.55;;;23.50;99.90;;;24.00;49.66;101855.44;4934704;29;20052;-70
2023/06/16 07:57:57;;;;;;;3.42;3.22;;;23.40;99.90;;;23.77;47.25;101853.72;4934927;29;20450;-71
2023/06/16 08:00:25;;;;;;;2.30;2.20;;;23.30;99.90;;;23.87;46.94;101848.81;4934611;29;20048;-70
2023/06/16 08:02:54;;;;;;;2.63;2.53;;;23.30;99.90;;;24.17;49.06;101850.19;4934334;29;20051;-70
2023/06/16 08:05:25;;;;;;;3.97;3.13;;;23.50;99.90;;;23.93;47.24;101822.38;4934612;29;20410;-70
2023/06/16 08:07:54;;;;;;;2.42;2.33;;;23.50;99.90;;;24.32;46.23;101848.63;4933219;29;20079;-68
2023/06/16 08:10:23;;;;;;;2.67;2.58;;;23.80;99.90;;;24.60;47.36;101852.66;4937890;29;20397;-69
2023/06/16 08:12:53;;;;;;;2.80;2.60;;;24.10;99.90;;;24.85;47.07;101852.44;4934282;29;20048;-72
2023/06/16 08:15:21;;;;;;;3.92;3.17;;;24.40;99.90;;;24.47;44.58;101845.19;4938026;29;20043;-76
2023/06/16 08:17:50;;;;;;;2.35;2.25;;;24.20;99.90;;;24.10;45.35;101825.25;4937808;29;20048;-71
2023/06/16 08:20:18;;;;;;;2.33;2.22;;;23.80;99.90;;;24.49;45.42;101843.31;4937586;29;20048;-73
2023/06/16 08:22:47;;;;;;;3.22;3.03;;;24.00;99.90;;;24.54;47.69;101849.41;4938002;29;20055;-70
2023/06/16 08:25:15;;;;;;;2.38;2.28;;;24.10;99.90;;;24.56;46.77;101839.38;4937352;29;20078;-70
2023/06/16 08:27:44;;;;;;;2.47;2.38;;;24.10;99.90;;;24.59;45.69;101845.53;4937795;29;20099;-74
2023/06/16 08:30:16;;;;;;;3.53;3.33;;;24.20;99.90;;;24.44;43.95;101845.34;4937543;29;20051;-71
2023/06/16 08:32:45;;;;;;;3.15;2.95;;;24.00;99.90;;;24.58;44.27;101848.31;4934342;29;20058;-67
2023/06/16 08:35:13;;;;;;;2.28;2.17;;;24.10;99.90;;;24.91;44.72;101852.16;4937360;29;20138;-64
2023/06/16 08:37:42;;;;;;;3.88;3.60;;;24.40;99.90;;;24.54;44.33;101835.88;4937532;29;20508;-65
2023/06/16 08:40:12;;;;;;;26.75;3.55;;;24.20;99.90;;;24.48;45.32;101844.25;4936198;29;20098;-65
2023/06/16 08:42:42;;;;;;;2.45;2.35;;;24.00;99.90;;;24.67;46.34;101847.88;4937202;29;20062;-64
2023/06/16 08:45:13;;;;;;;2.72;2.60;;;24.10;99.90;;;24.95;44.53;101851.06;4937256;29;20067;-64
2023/06/16 08:47:42;;;;;;;2.05;1.95;;;24.40;99.90;;;25.30;43.23;101839.34;4937139;29;20783;-65
2023/06/16 08:50:13;;;;;;;2.08;1.98;;;24.80;99.90;;;25.53;44.05;101844.53;4937091;29;20056;-65
2023/06/16 08:52:43;;;;;;;2.50;2.40;;;25.10;99.90;;;25.84;42.95;101843.84;4924838;29;20040;-65
2023/06/16 08:55:15;;;;;;;2.20;2.10;;;25.50;99.90;;;26.25;42.45;101847.97;4928212;29;20473;-65
2023/06/16 08:57:49;;;;;;;4.90;3.22;;;25.80;99.90;;;25.67;40.63;101850.13;4936982;29;20103;-65
2023/06/16 09:00:20;;;;;;;2.15;2.05;;;25.50;99.90;;;25.70;40.40;101846.38;4937081;29;20047;-65
2023/06/16 09:02:50;;;;;;;2.47;2.38;;;25.20;99.90;;;25.97;40.97;101842.25;4936825;29;20387;-65
2023/06/16 09:05:19;;;;;;;2.00;1.90;;;25.50;99.90;;;26.33;40.97;101848.44;4937072;29;20087;-65
2023/06/16 09:07:49;;;;;;;1.75;1.75;;;25.90;99.90;;;26.58;39.87;101854.28;4936709;29;20051;-66
2023/06/16 09:10:19;;;;;;;2.33;2.20;;;26.20;99.90;;;26.33;37.89;101851.16;4936727;29;20150;-65
2023/06/16 09:12:53;;;;;;;1.98;1.88;;;26.00;96.30;;;25.74;39.09;101829.91;4936601;29;20102;-65
2023/06/16 09:15:24;;;;;;;2.13;2.03;;;25.50;99.30;;;25.72;38.69;101845.38;4935551;29;20054;-65
2023/06/16 09:17:53;;;;;;;2.13;2.03;;;25.30;98.10;;;25.83;38.82;101848.38;4935908;29;20398;-66
2023/06/16 09:20:23;;;;;;;2.00;1.90;;;25.30;99.90;;;26.26;38.39;101848.84;4933133;29;20126;-66
2023/06/16 09:23:00;;;;;;;2.42;2.22;;;25.70;98.80;;;26.38;36.08;101853.63;4936775;29;20047;-66
2023/06/16 09:25:33;;;;;;;3.65;2.50;;;25.90;90.00;;;25.74;38.95;101850.69;4928140;29;20130;-66
2023/06/16 09:28:08;;;;;;;1.92;1.85;;;25.30;98.00;;;25.94;37.98;101854.13;4936405;29;20047;-66
2023/06/16 09:30:38;;;;;;;2.00;1.90;;;25.40;95.50;;;26.31;37.26;101850.34;4933247;29;20139;-66
2023/06/16 09:33:12;;;;;;;2.63;2.42;;;25.80;93.90;;;26.52;37.00;101851.00;4936440;29;20065;-65
2023/06/16 09:35:43;;;;;;;2.50;2.40;;;26.00;93.00;;;26.38;37.59;101846.38;4927608;29;20086;-65
2023/06/16 09:38:11;;;;;;;3.88;2.53;;;25.90;93.60;;;26.12;37.54;101848.72;4936287;29;20110;-65
2023/06/16 09:40:40;;;;;;;2.30;2.20;;;25.80;92.90;;;25.62;37.04;101841.38;4936226;29;20079;-65
2023/06/16 09:43:10;;;;;;;1.95;1.85;;;25.20;90.90;;;25.61;37.66;101845.00;4936205;29;20509;-65
2023/06/16 09:45:40;;;;;;;3.03;2.78;;;25.00;93.50;;;25.78;37.43;101839.59;4932929;29;20055;-65
2023/06/16 09:48:12;;;;;;;4.55;2.97;;;25.20;94.30;;;25.48;37.39;101838.47;4936063;29;20059;-65
2023/06/16 09:50:41;;;;;;;2.50;2.40;;;25.00;93.20;;;25.33;37.14;101839.22;4936140;29;20457;-64
2023/06/16 09:53:10;;;;;;;2.40;2.30;;;24.90;91.80;;;25.55;39.00;101834.47;4935990;29;20044;-64
2023/06/16 09:55:42;;;;;;;2.33;2.22;;;24.90;98.80;;;25.76;36.49;101843.38;4935849;29;20122;-65
2023/06/16 09:58:10;;;;;;;2.25;2.15;;;25.10;91.40;;;26.03;36.25;101838.31;4936008;29;20415;-65
2023/06/16 10:00:40;;;;;;;1.95;1.85;;;25.40;90.40;;;26.35;36.03;101843.81;4932215;29;20052;-65
2023/06/16 10:03:10;;;;;;;2.25;2.15;;;25.70;88.80;;;26.29;35.45;101843.25;4935896;29;20056;-65
2023/06/16 10:05:41;;;;;;;1.80;1.80;;;25.80;84.20;;;26.49;35.54;101834.91;4935917;29;20048;-65
2023/06/16 10:08:12;;;;;;;2.08;1.98;;;26.00;84.50;;;26.81;34.16;101844.03;4935798;29;20046;-65
2023/06/16 10:10:44;;;;;;;1.63;1.63;;;26.40;77.00;;;27.14;34.84;101833.97;4935888;29;20047;-65
2023/06/16 10:13:13;;;;;;;1.52;1.52;;;26.70;80.10;;;27.49;34.92;101830.06;4936080;29;20094;-65
2023/06/16 10:15:44;;;;;;;2.00;1.90;;;27.10;80.00;;;26.54;36.87;101839.13;4934472;29;20050;-65
2023/06/16 10:18:17;;;;;;;1.65;1.65;;;26.30;85.40;;;27.04;34.79;101835.44;4932751;29;20055;-65
2023/06/16 10:20:48;;;;;;;1.55;1.55;;;26.50;79.20;;;27.48;34.94;101834.66;4936042;29;20058;-65
2023/06/16 10:23:16;;;;;;;1.70;1.70;;;27.00;80.10;;;27.53;34.14;101837.06;4935619;29;20552;-65
2023/06/16 10:25:46;;;;;;;1.95;1.85;;;27.10;76.00;;;27.64;33.52;101835.47;4936077;29;20054;-65